ADDS METAR Data INFO
IDs: Format: Raw Decoded Include TAF

Data at: 1844 UTC 16 Dec 2017

PAWN 161656Z AUTO 02011G16KT 10SM BKN100 M07/M11 A2923 RMK AO2 SLP912 T10721106 FZRANO
PAWN 161556Z AUTO 01012KT 10SM SCT080 M07/M10 A2923 RMK AO2 SLP911 T10671100 FZRANO
PAWN 161456Z AUTO 01013KT 10SM OVC095 M07/M09 A2922 RMK AO2 SLP910 T10671094 58013 FZRANO
PAWN 161156Z AUTO 36010KT 10SM FEW095 M08/M10 A2926 RMK AO2 SLP923 T10831100 11078 21122 58010 FZRANO
PAWN 160856Z AUTO 01008KT 10SM CLR M08/M09 A2929 RMK AO2 SLP933 T10831094 56019 FZRANO
PAWN 160756Z AUTO 36006KT 10SM CLR M11/M12 A2930 RMK AO2 SLP938 T11061122 410671172 FZRANO
PAWN 160656Z AUTO 01009KT 10SM CLR M10/M11 A2932 RMK AO2 SLP945 T11001111 FZRANO
PAWN 160556Z AUTO 36009KT 10SM CLR M12/M13 A2935 RMK AO2 SLP952 60000 T11221133 11122 21172 58016 FZRANO
PAWN 160456Z AUTO 33003KT 10SM FEW002 M15/M17 A2937 RMK AO2 SLP961 T11501167 FZRANO
PAWN 160440Z AUTO 30003KT 3SM BR BKN002 M15/M17 A2937 RMK AO2 FZRANO
PAWN 160421Z AUTO 00000KT 1 1/4SM BR OVC002 M17/M18 A2938 RMK AO2 VIS 1/2V2 FZRANO
PAWN 160404Z AUTO 16004KT 3/4SM BR BKN002 M17/M19 A2938 RMK AO2 VIS 1/2V2 1/2 FZRANO
PAWN 160356Z AUTO 00000KT 1 1/4SM BR SCT002 M16/M17 A2938 RMK AO2 SLP964 T11561172 FZRANO
PAWN 160341Z AUTO 00000KT 3SM BR CLR M16/M18 A2938 RMK AO2 FZRANO
PAWN 160329Z AUTO 00000KT 1 1/2SM BR CLR M17/M18 A2938 RMK AO2 FZRANO
PAWN 160320Z AUTO 00000KT 1SM BR FEW085 M17/M19 A2938 RMK AO2 FZRANO
PAWN 160310Z AUTO 00000KT 1 3/4SM BR SCT085 M17/M19 A2939 RMK AO2 VIS 3/4V5 FZRANO
PAWN 160256Z AUTO 16003KT 10SM BKN085 M17/M19 A2939 RMK AO2 SLP969 60000 T11721194 56022 FZRANO
PAWN 160156Z AUTO 32003KT 10SM CLR M17/M19 A2941 RMK AO2 SNB19E31 SLP973 P0000 T11671189 FZRANO
PAWN 160135Z AUTO 00000KT 9SM CLR M16/M18 A2942 RMK AO2 SNB19E31 P0000 FZRANO
PAWN 160125Z AUTO 00000KT 2SM -SN BR CLR M16/M18 A2943 RMK AO2 SNB19 P0000 FZRANO
PAWN 160056Z AUTO 00000KT 10SM CLR M12/M14 A2944 RMK AO2 SLP983 T11221144 FZRANO
PAWN 152356Z AUTO 02006KT 10SM CLR M13/M14 A2946 RMK AO2 SLP991 T11281144 11128 21150 58025 FZRANO
PAWN 152256Z AUTO 34004KT 10SM CLR M14/M16 A2950 RMK AO2 SLP004 T11391156 FZRANO
PAWN 152156Z AUTO 35006KT 10SM CLR M14/M15 A2952 RMK AO2 SLP011 T11391150 FZRANO
PAWN 152056Z AUTO 33003KT 10SM CLR M14/M16 A2953 RMK AO2 SLP016 T11441161 56010 FZRANO
PAWN 151956Z AUTO 35005KT 10SM BKN002 M14/M16 A2954 RMK AO2 SLP018 T11391156 FZRANO
PAWN 151756Z AUTO 36005KT 10SM OVC031 M14/M16 A2958 RMK AO2 SLP030 T11391156 11089 21144 58014 FZRANO
PAWN 151714Z AUTO 34006KT 10SM BKN027 BKN035 M14/M16 A2959 RMK AO2 FZRANO
PAWN 151556Z AUTO 35004KT 10SM FEW002 OVC035 M14/M16 A2961 RMK AO2 SLP041 T11391156 FZRANO
PAWN 151542Z AUTO 35005KT 10SM SCT002 OVC037 M14/M16 A2961 RMK AO2 FZRANO
PAWN 151456Z AUTO 34004KT 10SM OVC039 M14/M16 A2962 RMK AO2 SLP045 T11391156 56007 FZRANO
PAWN 151356Z AUTO 01004KT 10SM OVC037 M12/M13 A2963 RMK AO2 SLP047 T11171133 FZRANO
PAWN 151256Z AUTO 36004KT 10SM OVC035 M10/M12 A2963 RMK AO2 SLP049 T11001117 FZRANO
PAWN 151156Z AUTO 02004KT 10SM OVC037 M09/M11 A2964 RMK AO2 SLP052 60000 70003 T10941106 11050 21111 50002 FZRANO
PAWN 151056Z AUTO 34007KT 10SM OVC037 M11/M12 A2965 RMK AO2 SLP054 T11061117 FZRANO
PAWN 150956Z AUTO 33005KT 10SM CLR M09/M11 A2965 RMK AO2 SLP054 T10941106 FZRANO
PAWN 150856Z AUTO 14004KT 10SM BKN041 M08/M09 A2963 RMK AO2 SLP050 60000 T10781094 51014 FZRANO
PAWN 150756Z AUTO 12007KT 10SM OVC031 M07/M08 A2962 RMK AO2 SNE25 SLP046 P0000 T10671083 400111067 FZRANO